sensor_id;sensor_type;location;lat;lon;timestamp;temperature;humidity
68943;DHT22;60852;52.190;4.422;2023-08-24T00:01:33;19.50;74.70
68943;DHT22;60852;52.190;4.422;2023-08-24T00:03:58;19.63;74.39
68943;DHT22;60852;52.190;4.422;2023-08-24T00:06:24;19.68;74.13
68943;DHT22;60852;52.190;4.422;2023-08-24T00:08:50;19.70;74.03
68943;DHT22;60852;52.190;4.422;2023-08-24T00:11:15;19.67;74.25
68943;DHT22;60852;52.190;4.422;2023-08-24T00:13:42;19.63;74.42
68943;DHT22;60852;52.190;4.422;2023-08-24T00:16:11;19.58;74.72
68943;DHT22;60852;52.190;4.422;2023-08-24T00:18:37;19.51;75.08
68943;DHT22;60852;52.190;4.422;2023-08-24T00:21:02;19.50;75.22
68943;DHT22;60852;52.190;4.422;2023-08-24T00:23:28;19.51;75.09
68943;DHT22;60852;52.190;4.422;2023-08-24T00:25:53;19.58;75.10
68943;DHT22;60852;52.190;4.422;2023-08-24T00:28:19;19.61;74.96
68943;DHT22;60852;52.190;4.422;2023-08-24T00:30:44;19.70;74.86
68943;DHT22;60852;52.190;4.422;2023-08-24T00:33:10;19.77;74.59
68943;DHT22;60852;52.190;4.422;2023-08-24T00:35:36;19.81;74.30
68943;DHT22;60852;52.190;4.422;2023-08-24T00:38:01;19.85;74.21
68943;DHT22;60852;52.190;4.422;2023-08-24T00:40:27;19.88;73.99
68943;DHT22;60852;52.190;4.422;2023-08-24T00:42:52;19.95;73.85
68943;DHT22;60852;52.190;4.422;2023-08-24T00:45:18;19.97;73.62
68943;DHT22;60852;52.190;4.422;2023-08-24T00:47:46;19.95;73.71
68943;DHT22;60852;52.190;4.422;2023-08-24T00:50:13;20.01;73.65
68943;DHT22;60852;52.190;4.422;2023-08-24T00:52:40;20.02;73.71
68943;DHT22;60852;52.190;4.422;2023-08-24T00:55:07;20.01;74.05
68943;DHT22;60852;52.190;4.422;2023-08-24T00:57:35;20.05;74.44
68943;DHT22;60852;52.190;4.422;2023-08-24T01:00:04;20.08;74.90
68943;DHT22;60852;52.190;4.422;2023-08-24T01:02:37;20.08;75.08
68943;DHT22;60852;52.190;4.422;2023-08-24T01:05:03;20.01;75.25
68943;DHT22;60852;52.190;4.422;2023-08-24T01:07:34;20.02;75.59
68943;DHT22;60852;52.190;4.422;2023-08-24T01:10:03;20.07;75.65
68943;DHT22;60852;52.190;4.422;2023-08-24T01:18:14;20.05;75.90
68943;DHT22;60852;52.190;4.422;2023-08-24T01:20:42;20.07;75.92
68943;DHT22;60852;52.190;4.422;2023-08-24T01:26:19;20.01;76.04
68943;DHT22;60852;52.190;4.422;2023-08-24T01:28:46;19.97;76.02
68943;DHT22;60852;52.190;4.422;2023-08-24T01:31:16;19.94;76.08
68943;DHT22;60852;52.190;4.422;2023-08-24T01:33:42;19.85;76.35
68943;DHT22;60852;52.190;4.422;2023-08-24T01:36:11;19.84;76.55
68943;DHT22;60852;52.190;4.422;2023-08-24T01:38:37;19.82;76.59
68943;DHT22;60852;52.190;4.422;2023-08-24T01:41:12;19.84;76.82
68943;DHT22;60852;52.190;4.422;2023-08-24T01:43:40;19.81;76.77
68943;DHT22;60852;52.190;4.422;2023-08-24T01:46:13;19.74;76.99
68943;DHT22;60852;52.190;4.422;2023-08-24T01:48:40;19.78;77.20
68943;DHT22;60852;52.190;4.422;2023-08-24T01:51:07;19.78;77.06
68943;DHT22;60852;52.190;4.422;2023-08-24T01:53:37;19.77;77.05
68943;DHT22;60852;52.190;4.422;2023-08-24T01:56:11;19.75;77.04
68943;DHT22;60852;52.190;4.422;2023-08-24T01:58:37;19.77;76.98
68943;DHT22;60852;52.190;4.422;2023-08-24T02:01:05;19.77;76.95
68943;DHT22;60852;52.190;4.422;2023-08-24T02:03:31;19.71;77.05
68943;DHT22;60852;52.190;4.422;2023-08-24T02:05:56;19.70;77.01
68943;DHT22;60852;52.190;4.422;2023-08-24T02:08:22;19.70;77.09
68943;DHT22;60852;52.190;4.422;2023-08-24T02:10:47;19.68;77.06
68943;DHT22;60852;52.190;4.422;2023-08-24T02:13:13;19.63;77.45
68943;DHT22;60852;52.190;4.422;2023-08-24T02:15:38;19.45;77.89
68943;DHT22;60852;52.190;4.422;2023-08-24T02:18:07;19.30;78.95
68943;DHT22;60852;52.190;4.422;2023-08-24T02:20:39;19.29;79.13
68943;DHT22;60852;52.190;4.422;2023-08-24T02:23:05;19.24;79.21
68943;DHT22;60852;52.190;4.422;2023-08-24T02:25:31;19.19;79.35
68943;DHT22;60852;52.190;4.422;2023-08-24T02:27:57;19.08;79.76
68943;DHT22;60852;52.190;4.422;2023-08-24T02:30:22;18.96;80.11
68943;DHT22;60852;52.190;4.422;2023-08-24T02:32:49;18.94;80.26
68943;DHT22;60852;52.190;4.422;2023-08-24T02:35:14;18.94;80.14
68943;DHT22;60852;52.190;4.422;2023-08-24T02:37:40;18.92;80.39
68943;DHT22;60852;52.190;4.422;2023-08-24T02:40:06;18.96;80.12
68943;DHT22;60852;52.190;4.422;2023-08-24T02:42:32;18.99;80.05
68943;DHT22;60852;52.190;4.422;2023-08-24T02:44:58;19.03;80.00
68943;DHT22;60852;52.190;4.422;2023-08-24T02:47:24;19.09;79.74
68943;DHT22;60852;52.190;4.422;2023-08-24T02:49:49;19.10;79.46
68943;DHT22;60852;52.190;4.422;2023-08-24T02:52:15;19.09;79.57
68943;DHT22;60852;52.190;4.422;2023-08-24T02:54:40;19.09;79.51
68943;DHT22;60852;52.190;4.422;2023-08-24T02:57:06;19.13;79.47
68943;DHT22;60852;52.190;4.422;2023-08-24T02:59:31;19.12;79.13
68943;DHT22;60852;52.190;4.422;2023-08-24T03:01:57;19.15;79.15
68943;DHT22;60852;52.190;4.422;2023-08-24T03:04:23;19.15;79.08
68943;DHT22;60852;52.190;4.422;2023-08-24T03:06:48;19.16;79.07
68943;DHT22;60852;52.190;4.422;2023-08-24T03:09:14;19.16;79.04
68943;DHT22;60852;52.190;4.422;2023-08-24T03:11:41;19.16;78.77
68943;DHT22;60852;52.190;4.422;2023-08-24T03:14:06;19.15;78.83
68943;DHT22;60852;52.190;4.422;2023-08-24T03:16:32;19.10;78.82
68943;DHT22;60852;52.190;4.422;2023-08-24T03:18:57;19.12;78.77
68943;DHT22;60852;52.190;4.422;2023-08-24T03:21:23;19.10;78.66
68943;DHT22;60852;52.190;4.422;2023-08-24T03:23:49;19.10;78.65
68943;DHT22;60852;52.190;4.422;2023-08-24T03:26:15;19.10;78.50
68943;DHT22;60852;52.190;4.422;2023-08-24T03:28:42;19.06;78.43
68943;DHT22;60852;52.190;4.422;2023-08-24T03:31:07;19.05;78.58
68943;DHT22;60852;52.190;4.422;2023-08-24T03:33:33;19.06;78.55
68943;DHT22;60852;52.190;4.422;2023-08-24T03:36:00;19.02;78.67
68943;DHT22;60852;52.190;4.422;2023-08-24T03:38:26;19.02;78.61
68943;DHT22;60852;52.190;4.422;2023-08-24T03:40:52;19.02;78.61
68943;DHT22;60852;52.190;4.422;2023-08-24T03:43:17;19.00;78.66
68943;DHT22;60852;52.190;4.422;2023-08-24T03:45:43;19.02;78.80
68943;DHT22;60852;52.190;4.422;2023-08-24T03:48:09;19.02;78.75
68943;DHT22;60852;52.190;4.422;2023-08-24T03:50:34;19.03;78.62
68943;DHT22;60852;52.190;4.422;2023-08-24T03:53:00;18.99;78.73
68943;DHT22;60852;52.190;4.422;2023-08-24T03:55:25;18.99;78.73
68943;DHT22;60852;52.190;4.422;2023-08-24T03:57:51;19.03;78.73
68943;DHT22;60852;52.190;4.422;2023-08-24T04:00:17;19.02;78.81
68943;DHT22;60852;52.190;4.422;2023-08-24T04:02:43;18.99;78.66
68943;DHT22;60852;52.190;4.422;2023-08-24T04:05:08;18.99;78.87
68943;DHT22;60852;52.190;4.422;2023-08-24T04:07:34;18.98;78.83
68943;DHT22;60852;52.190;4.422;2023-08-24T04:10:02;18.96;78.93
68943;DHT22;60852;52.190;4.422;2023-08-24T04:12:30;18.95;78.97
68943;DHT22;60852;52.190;4.422;2023-08-24T04:14:56;18.94;78.95
68943;DHT22;60852;52.190;4.422;2023-08-24T04:17:23;18.91;79.15
68943;DHT22;60852;52.190;4.422;2023-08-24T04:19:49;18.91;79.07
68943;DHT22;60852;52.190;4.422;2023-08-24T04:22:15;18.88;79.21
68943;DHT22;60852;52.190;4.422;2023-08-24T04:24:40;18.87;79.29
68943;DHT22;60852;52.190;4.422;2023-08-24T04:27:06;18.87;79.50
68943;DHT22;60852;52.190;4.422;2023-08-24T04:29:32;18.89;79.43
68943;DHT22;60852;52.190;4.422;2023-08-24T04:31:57;18.94;79.36
68943;DHT22;60852;52.190;4.422;2023-08-24T04:34:23;18.96;79.39
68943;DHT22;60852;52.190;4.422;2023-08-24T04:36:48;18.99;79.42
68943;DHT22;60852;52.190;4.422;2023-08-24T04:39:14;18.99;79.29
68943;DHT22;60852;52.190;4.422;2023-08-24T04:41:39;19.00;79.32
68943;DHT22;60852;52.190;4.422;2023-08-24T04:44:05;19.08;79.14
68943;DHT22;60852;52.190;4.422;2023-08-24T04:46:31;19.10;79.13
68943;DHT22;60852;52.190;4.422;2023-08-24T04:48:57;19.10;79.06
68943;DHT22;60852;52.190;4.422;2023-08-24T04:51:22;19.12;78.89
68943;DHT22;60852;52.190;4.422;2023-08-24T04:53:48;19.12;78.68
68943;DHT22;60852;52.190;4.422;2023-08-24T04:56:13;19.12;78.77
68943;DHT22;60852;52.190;4.422;2023-08-24T04:58:40;19.15;78.83
68943;DHT22;60852;52.190;4.422;2023-08-24T05:01:05;19.18;78.70
68943;DHT22;60852;52.190;4.422;2023-08-24T05:03:30;19.20;78.66
68943;DHT22;60852;52.190;4.422;2023-08-24T05:05:56;19.22;78.63
68943;DHT22;60852;52.190;4.422;2023-08-24T05:08:21;19.26;78.68
68943;DHT22;60852;52.190;4.422;2023-08-24T05:10:47;19.29;78.61
68943;DHT22;60852;52.190;4.422;2023-08-24T05:13:12;19.27;78.69
68943;DHT22;60852;52.190;4.422;2023-08-24T05:15:38;19.29;78.71
68943;DHT22;60852;52.190;4.422;2023-08-24T05:18:03;19.31;78.68
68943;DHT22;60852;52.190;4.422;2023-08-24T05:20:29;19.40;78.58
68943;DHT22;60852;52.190;4.422;2023-08-24T05:22:54;19.39;78.55
68943;DHT22;60852;52.190;4.422;2023-08-24T05:25:21;19.30;78.65
68943;DHT22;60852;52.190;4.422;2023-08-24T05:27:47;19.31;78.63
68943;DHT22;60852;52.190;4.422;2023-08-24T05:30:12;19.34;78.92
68943;DHT22;60852;52.190;4.422;2023-08-24T05:32:38;19.37;78.88
68943;DHT22;60852;52.190;4.422;2023-08-24T05:35:07;19.53;78.72
68943;DHT22;60852;52.190;4.422;2023-08-24T05:37:33;19.57;78.13
68943;DHT22;60852;52.190;4.422;2023-08-24T05:40:00;19.79;77.99
68943;DHT22;60852;52.190;4.422;2023-08-24T05:42:27;19.79;77.98
68943;DHT22;60852;52.190;4.422;2023-08-24T05:44:52;19.75;78.26
68943;DHT22;60852;52.190;4.422;2023-08-24T05:47:18;19.82;78.26
68943;DHT22;60852;52.190;4.422;2023-08-24T05:49:44;19.81;78.15
68943;DHT22;60852;52.190;4.422;2023-08-24T05:52:09;19.87;78.26
68943;DHT22;60852;52.190;4.422;2023-08-24T05:54:38;19.92;78.03
68943;DHT22;60852;52.190;4.422;2023-08-24T05:57:04;19.92;77.93
68943;DHT22;60852;52.190;4.422;2023-08-24T05:59:31;19.95;78.01
68943;DHT22;60852;52.190;4.422;2023-08-24T06:01:57;19.91;78.19
68943;DHT22;60852;52.190;4.422;2023-08-24T06:04:22;19.97;78.17
68943;DHT22;60852;52.190;4.422;2023-08-24T06:06:48;20.05;78.07
68943;DHT22;60852;52.190;4.422;2023-08-24T06:09:14;20.14;77.76
68943;DHT22;60852;52.190;4.422;2023-08-24T06:11:40;20.25;77.78
68943;DHT22;60852;52.190;4.422;2023-08-24T06:14:06;20.28;77.44
68943;DHT22;60852;52.190;4.422;2023-08-24T06:16:31;20.33;77.27
68943;DHT22;60852;52.190;4.422;2023-08-24T06:18:57;20.38;76.93
68943;DHT22;60852;52.190;4.422;2023-08-24T06:21:22;20.39;77.01
68943;DHT22;60852;52.190;4.422;2023-08-24T06:23:48;20.45;76.97
68943;DHT22;60852;52.190;4.422;2023-08-24T06:26:13;20.45;76.64
68943;DHT22;60852;52.190;4.422;2023-08-24T06:28:39;20.43;76.99
68943;DHT22;60852;52.190;4.422;2023-08-24T06:31:05;20.47;77.01
68943;DHT22;60852;52.190;4.422;2023-08-24T06:33:34;20.56;76.98
68943;DHT22;60852;52.190;4.422;2023-08-24T06:35:59;20.66;77.03
68943;DHT22;60852;52.190;4.422;2023-08-24T06:38:25;20.76;76.72
68943;DHT22;60852;52.190;4.422;2023-08-24T06:40:51;20.86;76.37
68943;DHT22;60852;52.190;4.422;2023-08-24T06:43:17;20.76;76.26
68943;DHT22;60852;52.190;4.422;2023-08-24T06:45:44;20.83;76.09
68943;DHT22;60852;52.190;4.422;2023-08-24T06:48:09;20.84;76.04
68943;DHT22;60852;52.190;4.422;2023-08-24T06:50:35;20.91;75.94
68943;DHT22;60852;52.190;4.422;2023-08-24T06:53:02;20.97;75.53
68943;DHT22;60852;52.190;4.422;2023-08-24T06:55:28;21.12;75.82
68943;DHT22;60852;52.190;4.422;2023-08-24T06:57:55;21.28;75.48
68943;DHT22;60852;52.190;4.422;2023-08-24T07:00:21;21.23;74.54
68943;DHT22;60852;52.190;4.422;2023-08-24T07:02:50;21.27;74.86
68943;DHT22;60852;52.190;4.422;2023-08-24T07:05:16;21.41;74.91
68943;DHT22;60852;52.190;4.422;2023-08-24T07:07:49;21.38;74.43
68943;DHT22;60852;52.190;4.422;2023-08-24T07:10:15;21.35;74.58
68943;DHT22;60852;52.190;4.422;2023-08-24T07:12:41;21.34;74.81
68943;DHT22;60852;52.190;4.422;2023-08-24T07:15:09;21.35;74.98
68943;DHT22;60852;52.190;4.422;2023-08-24T07:17:35;21.39;74.57
68943;DHT22;60852;52.190;4.422;2023-08-24T07:20:00;21.38;74.91
68943;DHT22;60852;52.190;4.422;2023-08-24T07:22:26;21.42;74.97
68943;DHT22;60852;52.190;4.422;2023-08-24T07:24:54;21.48;74.84
68943;DHT22;60852;52.190;4.422;2023-08-24T07:27:20;21.45;74.77
68943;DHT22;60852;52.190;4.422;2023-08-24T07:29:45;21.56;75.00
68943;DHT22;60852;52.190;4.422;2023-08-24T07:32:11;21.72;74.74
68943;DHT22;60852;52.190;4.422;2023-08-24T07:34:36;21.97;74.19
68943;DHT22;60852;52.190;4.422;2023-08-24T07:37:02;22.14;73.84
68943;DHT22;60852;52.190;4.422;2023-08-24T07:39:27;22.32;72.94
68943;DHT22;60852;52.190;4.422;2023-08-24T07:41:53;22.48;72.64
68943;DHT22;60852;52.190;4.422;2023-08-24T07:44:18;22.64;71.89
68943;DHT22;60852;52.190;4.422;2023-08-24T07:46:44;22.82;71.05
68943;DHT22;60852;52.190;4.422;2023-08-24T07:49:10;22.88;70.29
68943;DHT22;60852;52.190;4.422;2023-08-24T07:51:36;22.95;69.57
68943;DHT22;60852;52.190;4.422;2023-08-24T07:54:02;23.02;69.03
68943;DHT22;60852;52.190;4.422;2023-08-24T07:56:30;23.03;68.61
68943;DHT22;60852;52.190;4.422;2023-08-24T07:58:55;23.09;68.64
68943;DHT22;60852;52.190;4.422;2023-08-24T08:01:21;23.06;68.42
68943;DHT22;60852;52.190;4.422;2023-08-24T08:03:46;23.08;68.51
68943;DHT22;60852;52.190;4.422;2023-08-24T08:06:12;23.15;68.41
68943;DHT22;60852;52.190;4.422;2023-08-24T08:08:39;23.19;68.07
68943;DHT22;60852;52.190;4.422;2023-08-24T08:11:04;23.19;67.78
68943;DHT22;60852;52.190;4.422;2023-08-24T08:13:30;23.33;67.58
68943;DHT22;60852;52.190;4.422;2023-08-24T08:16:06;23.47;67.14
68943;DHT22;60852;52.190;4.422;2023-08-24T08:18:33;23.60;66.97
68943;DHT22;60852;52.190;4.422;2023-08-24T08:20:58;23.73;66.34
68943;DHT22;60852;52.190;4.422;2023-08-24T08:23:24;23.81;66.53
68943;DHT22;60852;52.190;4.422;2023-08-24T08:25:50;23.91;66.82
68943;DHT22;60852;52.190;4.422;2023-08-24T08:28:16;24.01;66.37
68943;DHT22;60852;52.190;4.422;2023-08-24T08:30:43;24.05;66.01
68943;DHT22;60852;52.190;4.422;2023-08-24T08:33:09;24.08;66.51
68943;DHT22;60852;52.190;4.422;2023-08-24T08:35:35;24.05;66.28
68943;DHT22;60852;52.190;4.422;2023-08-24T08:38:00;24.04;66.88
68943;DHT22;60852;52.190;4.422;2023-08-24T08:40:29;24.04;66.75
68943;DHT22;60852;52.190;4.422;2023-08-24T08:42:59;24.08;66.70
68943;DHT22;60852;52.190;4.422;2023-08-24T08:45:25;24.01;66.91
68943;DHT22;60852;52.190;4.422;2023-08-24T08:48:03;23.93;67.54
68943;DHT22;60852;52.190;4.422;2023-08-24T08:50:32;23.90;67.44
68943;DHT22;60852;52.190;4.422;2023-08-24T08:52:58;23.82;67.35
68943;DHT22;60852;52.190;4.422;2023-08-24T08:55:25;23.78;67.68
68943;DHT22;60852;52.190;4.422;2023-08-24T08:57:53;23.63;67.84
68943;DHT22;60852;52.190;4.422;2023-08-24T09:00:24;23.54;68.41
68943;DHT22;60852;52.190;4.422;2023-08-24T09:02:51;23.57;68.52
68943;DHT22;60852;52.190;4.422;2023-08-24T09:05:18;23.50;68.63
68943;DHT22;60852;52.190;4.422;2023-08-24T09:07:47;23.45;69.08
68943;DHT22;60852;52.190;4.422;2023-08-24T09:10:12;23.43;69.20
68943;DHT22;60852;52.190;4.422;2023-08-24T09:12:38;23.38;69.40
68943;DHT22;60852;52.190;4.422;2023-08-24T09:15:05;23.42;69.50
68943;DHT22;60852;52.190;4.422;2023-08-24T09:17:32;23.40;69.68
68943;DHT22;60852;52.190;4.422;2023-08-24T09:20:01;23.42;69.84
68943;DHT22;60852;52.190;4.422;2023-08-24T09:22:36;23.42;69.80
68943;DHT22;60852;52.190;4.422;2023-08-24T09:25:03;23.42;69.74
68943;DHT22;60852;52.190;4.422;2023-08-24T09:27:30;23.40;69.85
68943;DHT22;60852;52.190;4.422;2023-08-24T09:29:55;23.36;69.76
68943;DHT22;60852;52.190;4.422;2023-08-24T09:32:28;23.34;69.99
68943;DHT22;60852;52.190;4.422;2023-08-24T09:34:54;23.32;70.06
68943;DHT22;60852;52.190;4.422;2023-08-24T09:37:20;23.26;70.40
68943;DHT22;60852;52.190;4.422;2023-08-24T09:39:45;23.32;70.33
68943;DHT22;60852;52.190;4.422;2023-08-24T09:42:12;23.29;70.30
68943;DHT22;60852;52.190;4.422;2023-08-24T09:44:37;23.29;70.31
68943;DHT22;60852;52.190;4.422;2023-08-24T09:47:09;23.26;70.51
68943;DHT22;60852;52.190;4.422;2023-08-24T09:49:35;23.26;70.93
68943;DHT22;60852;52.190;4.422;2023-08-24T09:52:02;23.27;71.39
68943;DHT22;60852;52.190;4.422;2023-08-24T09:54:32;23.27;72.01
68943;DHT22;60852;52.190;4.422;2023-08-24T09:57:01;23.24;72.36
68943;DHT22;60852;52.190;4.422;2023-08-24T09:59:31;23.24;72.66
68943;DHT22;60852;52.190;4.422;2023-08-24T10:02:00;23.23;72.91
68943;DHT22;60852;52.190;4.422;2023-08-24T10:04:33;23.26;73.03
68943;DHT22;60852;52.190;4.422;2023-08-24T10:07:08;23.29;73.15
68943;DHT22;60852;52.190;4.422;2023-08-24T10:09:45;23.30;73.35
68943;DHT22;60852;52.190;4.422;2023-08-24T10:12:14;23.32;73.45
68943;DHT22;60852;52.190;4.422;2023-08-24T10:14:58;23.30;73.38
68943;DHT22;60852;52.190;4.422;2023-08-24T10:17:26;23.36;73.18
68943;DHT22;60852;52.190;4.422;2023-08-24T10:19:52;23.32;73.09
68943;DHT22;60852;52.190;4.422;2023-08-24T10:22:19;23.30;73.22
68943;DHT22;60852;52.190;4.422;2023-08-24T10:24:47;23.26;72.98
68943;DHT22;60852;52.190;4.422;2023-08-24T10:27:14;23.09;73.92
68943;DHT22;60852;52.190;4.422;2023-08-24T10:29:39;22.94;74.77
68943;DHT22;60852;52.190;4.422;2023-08-24T10:32:06;22.74;74.80
68943;DHT22;60852;52.190;4.422;2023-08-24T10:34:34;22.68;75.34
68943;DHT22;60852;52.190;4.422;2023-08-24T10:37:10;22.71;75.10
68943;DHT22;60852;52.190;4.422;2023-08-24T10:39:44;22.79;74.21
68943;DHT22;60852;52.190;4.422;2023-08-24T10:42:13;22.72;73.25
68943;DHT22;60852;52.190;4.422;2023-08-24T10:44:44;22.61;73.87
68943;DHT22;60852;52.190;4.422;2023-08-24T10:47:17;22.64;74.16
68943;DHT22;60852;52.190;4.422;2023-08-24T10:49:45;22.74;74.13
68943;DHT22;60852;52.190;4.422;2023-08-24T10:52:31;22.88;73.69
68943;DHT22;60852;52.190;4.422;2023-08-24T10:55:01;22.98;73.33
68943;DHT22;60852;52.190;4.422;2023-08-24T10:57:38;23.11;73.13
68943;DHT22;60852;52.190;4.422;2023-08-24T11:02:50;23.29;72.56
68943;DHT22;60852;52.190;4.422;2023-08-24T11:05:16;23.22;72.52
68943;DHT22;60852;52.190;4.422;2023-08-24T11:07:54;23.18;72.59
68943;DHT22;60852;52.190;4.422;2023-08-24T11:10:22;23.27;72.95
68943;DHT22;60852;52.190;4.422;2023-08-24T11:13:11;23.42;72.48
68943;DHT22;60852;52.190;4.422;2023-08-24T11:15:48;23.52;71.67
68943;DHT22;60852;52.190;4.422;2023-08-24T11:18:20;23.45;72.04
68943;DHT22;60852;52.190;4.422;2023-08-24T11:20:54;23.34;72.29
68943;DHT22;60852;52.190;4.422;2023-08-24T11:23:20;23.22;72.63
68943;DHT22;60852;52.190;4.422;2023-08-24T11:25:47;23.15;73.18
68943;DHT22;60852;52.190;4.422;2023-08-24T11:28:18;23.11;73.50
68943;DHT22;60852;52.190;4.422;2023-08-24T11:30:45;23.06;73.95
68943;DHT22;60852;52.190;4.422;2023-08-24T11:33:12;23.12;74.21
68943;DHT22;60852;52.190;4.422;2023-08-24T11:35:43;23.11;73.96
68943;DHT22;60852;52.190;4.422;2023-08-24T11:38:10;23.09;74.09
68943;DHT22;60852;52.190;4.422;2023-08-24T11:40:36;23.12;73.89
68943;DHT22;60852;52.190;4.422;2023-08-24T11:43:03;23.05;73.88
68943;DHT22;60852;52.190;4.422;2023-08-24T11:45:34;23.19;73.56
68943;DHT22;60852;52.190;4.422;2023-08-24T11:48:02;23.23;72.82
68943;DHT22;60852;52.190;4.422;2023-08-24T11:50:30;23.33;73.00
68943;DHT22;60852;52.190;4.422;2023-08-24T11:52:55;23.52;72.56
68943;DHT22;60852;52.190;4.422;2023-08-24T11:55:22;23.49;72.04
68943;DHT22;60852;52.190;4.422;2023-08-24T11:57:48;23.38;72.18
68943;DHT22;60852;52.190;4.422;2023-08-24T12:00:14;23.47;72.85
68943;DHT22;60852;52.190;4.422;2023-08-24T12:02:42;23.63;72.20
68943;DHT22;60852;52.190;4.422;2023-08-24T12:05:23;23.61;72.73
68943;DHT22;60852;52.190;4.422;2023-08-24T12:07:49;23.81;72.52
68943;DHT22;60852;52.190;4.422;2023-08-24T12:10:15;23.94;72.42
68943;DHT22;60852;52.190;4.422;2023-08-24T12:12:40;23.96;71.68
68943;DHT22;60852;52.190;4.422;2023-08-24T12:15:06;24.00;72.32
68943;DHT22;60852;52.190;4.422;2023-08-24T12:17:43;24.17;70.89
68943;DHT22;60852;52.190;4.422;2023-08-24T12:20:17;24.28;71.02
68943;DHT22;60852;52.190;4.422;2023-08-24T12:22:43;24.29;71.66
68943;DHT22;60852;52.190;4.422;2023-08-24T12:25:08;24.29;70.76
68943;DHT22;60852;52.190;4.422;2023-08-24T12:27:34;24.05;71.29
68943;DHT22;60852;52.190;4.422;2023-08-24T12:30:02;23.91;71.19
68943;DHT22;60852;52.190;4.422;2023-08-24T12:32:42;23.66;72.40
68943;DHT22;60852;52.190;4.422;2023-08-24T12:35:09;23.71;72.86
68943;DHT22;60852;52.190;4.422;2023-08-24T12:37:36;23.84;72.92
68943;DHT22;60852;52.190;4.422;2023-08-24T12:40:02;23.73;73.57
68943;DHT22;60852;52.190;4.422;2023-08-24T12:42:31;23.70;73.95
68943;DHT22;60852;52.190;4.422;2023-08-24T12:44:56;23.74;73.89
68943;DHT22;60852;52.190;4.422;2023-08-24T12:47:22;23.71;73.62
68943;DHT22;60852;52.190;4.422;2023-08-24T12:49:47;23.50;73.60
68943;DHT22;60852;52.190;4.422;2023-08-24T12:52:13;23.46;73.40
68943;DHT22;60852;52.190;4.422;2023-08-24T12:54:39;23.63;73.03
68943;DHT22;60852;52.190;4.422;2023-08-24T12:57:04;23.82;72.66
68943;DHT22;60852;52.190;4.422;2023-08-24T12:59:30;23.82;72.04
68943;DHT22;60852;52.190;4.422;2023-08-24T13:01:55;24.00;72.14
68943;DHT22;60852;52.190;4.422;2023-08-24T13:04:21;24.22;71.33
68943;DHT22;60852;52.190;4.422;2023-08-24T13:06:47;24.45;70.91
68943;DHT22;60852;52.190;4.422;2023-08-24T13:09:12;24.62;70.41
68943;DHT22;60852;52.190;4.422;2023-08-24T13:11:39;24.86;69.54
68943;DHT22;60852;52.190;4.422;2023-08-24T13:14:04;25.08;69.30
68943;DHT22;60852;52.190;4.422;2023-08-24T13:16:31;25.14;69.01
68943;DHT22;60852;52.190;4.422;2023-08-24T13:18:57;25.28;68.18
68943;DHT22;60852;52.190;4.422;2023-08-24T13:21:24;25.42;68.46
68943;DHT22;60852;52.190;4.422;2023-08-24T13:23:49;25.62;68.19
68943;DHT22;60852;52.190;4.422;2023-08-24T13:26:21;25.71;67.07
68943;DHT22;60852;52.190;4.422;2023-08-24T13:28:48;25.75;66.05
68943;DHT22;60852;52.190;4.422;2023-08-24T13:31:14;25.78;65.96
68943;DHT22;60852;52.190;4.422;2023-08-24T13:33:40;25.89;66.09
68943;DHT22;60852;52.190;4.422;2023-08-24T13:36:05;26.02;65.39
68943;DHT22;60852;52.190;4.422;2023-08-24T13:38:31;26.12;65.41
68943;DHT22;60852;52.190;4.422;2023-08-24T13:40:56;26.25;64.73
68943;DHT22;60852;52.190;4.422;2023-08-24T13:43:22;26.23;64.44
68943;DHT22;60852;52.190;4.422;2023-08-24T13:45:48;26.27;65.18
68943;DHT22;60852;52.190;4.422;2023-08-24T13:48:14;26.36;65.31
68943;DHT22;60852;52.190;4.422;2023-08-24T13:50:41;26.47;64.57
68943;DHT22;60852;52.190;4.422;2023-08-24T13:53:07;26.54;64.39
68943;DHT22;60852;52.190;4.422;2023-08-24T13:55:32;26.63;64.56
68943;DHT22;60852;52.190;4.422;2023-08-24T13:57:59;26.67;63.67
68943;DHT22;60852;52.190;4.422;2023-08-24T14:00:25;26.65;64.44
68943;DHT22;60852;52.190;4.422;2023-08-24T14:02:50;26.65;64.40
68943;DHT22;60852;52.190;4.422;2023-08-24T14:05:16;26.77;64.32
68943;DHT22;60852;52.190;4.422;2023-08-24T14:07:42;26.90;64.03
68943;DHT22;60852;52.190;4.422;2023-08-24T14:10:07;27.01;64.32
68943;DHT22;60852;52.190;4.422;2023-08-24T14:12:34;27.08;64.05
68943;DHT22;60852;52.190;4.422;2023-08-24T14:15:00;27.18;63.74
68943;DHT22;60852;52.190;4.422;2023-08-24T14:17:25;27.16;63.95
68943;DHT22;60852;52.190;4.422;2023-08-24T14:19:51;27.21;64.00
68943;DHT22;60852;52.190;4.422;2023-08-24T14:22:16;27.14;63.92
68943;DHT22;60852;52.190;4.422;2023-08-24T14:24:42;27.14;64.02
68943;DHT22;60852;52.190;4.422;2023-08-24T14:27:07;27.08;64.19
68943;DHT22;60852;52.190;4.422;2023-08-24T14:29:33;27.05;64.76
68943;DHT22;60852;52.190;4.422;2023-08-24T14:31:58;27.05;65.14
68943;DHT22;60852;52.190;4.422;2023-08-24T14:34:24;27.05;65.10
68943;DHT22;60852;52.190;4.422;2023-08-24T14:36:49;27.04;65.16
68943;DHT22;60852;52.190;4.422;2023-08-24T14:39:15;27.06;65.19
68943;DHT22;60852;52.190;4.422;2023-08-24T14:41:41;26.98;65.23
68943;DHT22;60852;52.190;4.422;2023-08-24T14:44:06;26.98;65.69
68943;DHT22;60852;52.190;4.422;2023-08-24T14:46:32;26.99;65.61
68943;DHT22;60852;52.190;4.422;2023-08-24T14:48:58;27.04;65.58
68943;DHT22;60852;52.190;4.422;2023-08-24T14:51:23;27.12;65.68
68943;DHT22;60852;52.190;4.422;2023-08-24T14:53:49;27.22;65.62
68943;DHT22;60852;52.190;4.422;2023-08-24T14:56:14;27.29;65.45
68943;DHT22;60852;52.190;4.422;2023-08-24T14:58:40;27.36;65.35
68943;DHT22;60852;52.190;4.422;2023-08-24T15:01:05;27.42;64.70
68943;DHT22;60852;52.190;4.422;2023-08-24T15:03:31;27.42;65.13
68943;DHT22;60852;52.190;4.422;2023-08-24T15:06:04;27.43;64.64
68943;DHT22;60852;52.190;4.422;2023-08-24T15:08:31;27.47;64.31
68943;DHT22;60852;52.190;4.422;2023-08-24T15:10:58;27.43;64.44
68943;DHT22;60852;52.190;4.422;2023-08-24T15:13:25;27.39;64.45
68943;DHT22;60852;52.190;4.422;2023-08-24T15:15:53;27.39;64.18
68943;DHT22;60852;52.190;4.422;2023-08-24T15:18:19;27.39;64.02
68943;DHT22;60852;52.190;4.422;2023-08-24T15:20:45;27.41;64.60
68943;DHT22;60852;52.190;4.422;2023-08-24T15:23:23;27.39;62.67
68943;DHT22;60852;52.190;4.422;2023-08-24T15:25:48;27.31;61.83
68943;DHT22;60852;52.190;4.422;2023-08-24T15:28:14;27.24;62.49
68943;DHT22;60852;52.190;4.422;2023-08-24T15:30:39;27.26;61.58
68943;DHT22;60852;52.190;4.422;2023-08-24T15:33:05;27.21;61.58
68943;DHT22;60852;52.190;4.422;2023-08-24T15:35:30;27.15;62.03
68943;DHT22;60852;52.190;4.422;2023-08-24T15:37:56;27.09;62.32
68943;DHT22;60852;52.190;4.422;2023-08-24T15:40:22;26.94;62.85